Guntersville Observed Data For Previous 48 Hours

Caption
Day and Hour Reservoir Elevation (behind dam)* Tailwater Elevation (below dam)* Average Hourly Discharge*
9/21/2017 1 AM CDT 594.56 555.69 17,044
9/21/2017 2 AM CDT 594.59 555.68 17,019
9/21/2017 3 AM CDT 594.65 555.71 16,973
9/21/2017 4 AM CDT 594.53 556.23 17,995
9/21/2017 5 AM CDT 594.56 556.95 33,458
9/21/2017 6 AM CDT 594.50 557.07 33,542
9/21/2017 7 AM CDT 594.44 557.20 33,574
9/21/2017 8 AM CDT 594.43 557.23 33,354
9/21/2017 9 AM CDT 594.40 557.22 33,708
9/21/2017 10 AM CDT 594.39 557.20 33,719
9/21/2017 11 AM CDT 594.38 557.22 33,635
9/21/2017 12 PM CDT 594.37 557.21 33,742
9/21/2017 1 PM CDT 594.35 557.18 33,699
9/21/2017 2 PM CDT 594.33 557.19 33,687
9/21/2017 3 PM CDT 594.29 557.13 33,645
9/21/2017 4 PM CDT 594.31 557.10 33,676
9/21/2017 5 PM CDT 594.33 557.10 33,794
9/21/2017 6 PM CDT 594.32 557.08 33,901
9/21/2017 7 PM CDT 594.33 557.08 33,886
9/21/2017 8 PM CDT 594.33 557.12 33,827
9/21/2017 9 PM CDT 594.32 557.10 33,965
9/21/2017 10 PM CDT 594.32 557.25 34,026
9/21/2017 11 PM CDT 594.43 555.90 17,910
9/22/2017 12 AM CDT 594.43 555.73 17,452
9/22/2017 1 AM CDT 594.47 555.56 17,381
9/22/2017 2 AM CDT 594.46 555.50 17,440
9/22/2017 3 AM CDT 594.50 555.53 17,548
9/22/2017 4 AM CDT 594.50 555.55 17,382
9/22/2017 5 AM CDT 594.46 555.58 17,597
9/22/2017 6 AM CDT 594.38 555.56 17,556
9/22/2017 7 AM CDT 594.31 555.57 17,248
9/22/2017 8 AM CDT 594.25 555.57 17,074
9/22/2017 9 AM CDT 594.22 555.55 16,897
9/22/2017 10 AM CDT 594.08 556.04 17,997
9/22/2017 11 AM CDT 594.11 556.71 33,390
9/22/2017 12 PM CDT 594.10 556.81 33,633
9/22/2017 1 PM CDT 594.12 556.94 33,652
9/22/2017 2 PM CDT 594.14 556.97 33,606
9/22/2017 3 PM CDT 594.13 556.99 33,527
9/22/2017 4 PM CDT 594.07 556.97 33,641
9/22/2017 5 PM CDT 594.13 557.01 33,699
9/22/2017 6 PM CDT 594.12 557.00 33,890
9/22/2017 7 PM CDT 594.12 556.99 33,902
9/22/2017 8 PM CDT 594.11 556.98 33,907
9/22/2017 9 PM CDT 594.12 557.00 34,086
9/22/2017 10 PM CDT 594.25 555.83 17,805
9/22/2017 11 PM CDT 594.24 555.69 17,379
9/23/2017 12 AM CDT 594.23 555.53 17,359
9/23/2017 1 AM CDT 594.23 555.46 17,112
9/23/2017 2 AM CDT 594.27 555.47 17,049

Elevations are in feet above sea level. Discharges are in cubic feet per second and are reported at the end of the hour.